createdAt,value
2023-02-11T00:01:33.027Z,99054.65
2023-02-11T00:04:02.464Z,99053.29
2023-02-11T00:06:32.836Z,99050.92
2023-02-11T00:09:01.314Z,99046.34
2023-02-11T00:11:30.798Z,99049.55
2023-02-11T00:14:08.099Z,99049.54
2023-02-11T00:16:36.536Z,99051.90
2023-02-11T00:19:06.616Z,99054.09
2023-02-11T00:21:35.103Z,99054.09
2023-02-11T00:24:03.682Z,99057.45
2023-02-11T00:26:34.490Z,99055.89
2023-02-11T00:29:03.022Z,99051.64
2023-02-11T00:31:33.318Z,99054.85
2023-02-11T00:34:02.122Z,99050.26
2023-02-11T00:36:31.106Z,99050.23
2023-02-11T00:39:00.150Z,99048.02
2023-02-11T00:41:29.830Z,99044.13
2023-02-11T00:44:01.882Z,99040.06
2023-02-11T00:46:30.528Z,99040.90
2023-02-11T00:48:58.775Z,99041.41
2023-02-11T00:51:28.502Z,99037.17
2023-02-11T00:53:57.952Z,99035.92
2023-02-11T00:56:26.102Z,99033.89
2023-02-11T00:58:54.359Z,99032.02
2023-02-11T01:01:22.579Z,99025.06
2023-02-11T01:03:51.423Z,99023.70
2023-02-11T01:06:19.996Z,99019.61
2023-02-11T01:08:48.086Z,99015.55
2023-02-11T01:11:20.058Z,99017.74
2023-02-11T01:13:49.647Z,99012.84
2023-02-11T01:16:19.463Z,99007.23
2023-02-11T01:18:48.124Z,99003.66
2023-02-11T01:21:19.310Z,99007.70
2023-02-11T01:23:47.697Z,99009.40
2023-02-11T01:26:16.109Z,99000.41
2023-02-11T01:28:44.503Z,98998.39
2023-02-11T01:31:12.823Z,98993.65
2023-02-11T01:33:41.235Z,98986.88
2023-02-11T01:36:11.027Z,98982.13
2023-02-11T01:38:41.228Z,98977.38
2023-02-11T01:41:12.314Z,98974.80
2023-02-11T01:43:46.318Z,98976.59
2023-02-11T01:46:36.898Z,98978.41
2023-02-11T01:49:10.180Z,98978.67
2023-02-11T01:51:52.105Z,98973.70
2023-02-11T01:54:43.313Z,98973.45
2023-02-11T01:57:27.745Z,98975.25
2023-02-11T02:00:08.110Z,98970.46
2023-02-11T02:02:47.767Z,98968.58
2023-02-11T02:05:26.360Z,98966.38
2023-02-11T02:08:02.828Z,98967.87
2023-02-11T02:10:31.923Z,98968.16
2023-02-11T02:12:59.906Z,98966.98
2023-02-11T02:15:32.366Z,98962.58
2023-02-11T02:18:41.784Z,98957.67
2023-02-11T02:21:41.697Z,98953.42
2023-02-11T02:24:15.816Z,98951.92
2023-02-11T02:27:02.778Z,98952.09
2023-02-11T02:30:03.440Z,98944.15
2023-02-11T02:33:21.623Z,98934.94
2023-02-11T02:36:19.692Z,98941.05
2023-02-11T02:38:57.333Z,98939.34
2023-02-11T02:41:30.704Z,98931.06
2023-02-11T02:43:59.195Z,98921.42
2023-02-11T02:46:34.656Z,98919.02
2023-02-11T02:49:03.945Z,98919.19
2023-02-11T02:52:09.299Z,98919.16
2023-02-11T02:55:01.594Z,98921.69
2023-02-11T02:57:35.908Z,98923.85
2023-02-11T03:00:09.920Z,98923.84
2023-02-11T03:03:05.844Z,98924.86
2023-02-11T03:05:55.399Z,98926.55
2023-02-11T03:08:47.363Z,98922.48
2023-02-11T03:11:19.011Z,98925.68
2023-02-11T03:13:49.718Z,98921.09
2023-02-11T03:16:23.413Z,98919.06
2023-02-11T03:19:08.810Z,98921.41
2023-02-11T03:21:40.245Z,98922.76
2023-02-11T03:24:14.674Z,98921.23
2023-02-11T03:26:52.981Z,98923.42
2023-02-11T03:29:40.804Z,98923.23
2023-02-11T03:32:44.186Z,98919.35
2023-02-11T03:35:12.372Z,98919.19
2023-02-11T03:37:52.114Z,98915.66
2023-02-11T03:40:26.943Z,98918.89
2023-02-11T03:43:01.136Z,98916.16
2023-02-11T03:45:30.644Z,98918.20
2023-02-11T03:48:16.336Z,98915.31
2023-02-11T03:50:47.491Z,98912.77
2023-02-11T03:53:16.482Z,98912.60
2023-02-11T03:55:48.300Z,98906.35
2023-02-11T03:58:17.033Z,98908.38
2023-02-11T04:00:45.633Z,98909.38
2023-02-11T04:03:14.290Z,98903.98
2023-02-11T04:05:42.695Z,98905.30
2023-02-11T04:08:11.075Z,98901.58
2023-02-11T04:10:39.261Z,98901.57
2023-02-11T04:13:07.349Z,98895.33
2023-02-11T04:15:35.523Z,98892.92
2023-02-11T04:18:05.131Z,98889.16
2023-02-11T04:20:33.221Z,98887.47
2023-02-11T04:23:01.151Z,98883.25
2023-02-11T04:25:29.356Z,98879.35
2023-02-11T04:27:57.681Z,98874.95
2023-02-11T04:30:25.914Z,98870.55
2023-02-11T04:32:54.706Z,98868.50
2023-02-11T04:35:23.101Z,98871.55
2023-02-11T04:37:51.264Z,98871.90
2023-02-11T04:40:19.342Z,98870.58
2023-02-11T04:42:47.520Z,98871.75
2023-02-11T04:45:15.593Z,98877.67
2023-02-11T04:47:43.682Z,98871.25
2023-02-11T04:50:11.909Z,98859.06
2023-02-11T04:52:40.136Z,98855.15
2023-02-11T04:55:08.524Z,98851.25
2023-02-11T04:57:36.735Z,98852.41
2023-02-11T05:00:07.057Z,98854.41
2023-02-11T05:02:34.996Z,98860.64
2023-02-11T05:05:03.789Z,98860.45
2023-02-11T05:07:32.126Z,98859.91
2023-02-11T05:10:00.184Z,98860.56
2023-02-11T05:12:28.429Z,98865.27
2023-02-11T05:14:56.605Z,98867.78
2023-02-11T05:17:24.580Z,98868.80
2023-02-11T05:19:52.543Z,98872.98
2023-02-11T05:22:22.180Z,98880.89
2023-02-11T05:24:50.296Z,98882.23
2023-02-11T05:27:18.297Z,98880.36
2023-02-11T05:29:46.468Z,98879.67
2023-02-11T05:32:14.537Z,98880.49
2023-02-11T05:34:42.746Z,98878.96
2023-02-11T05:37:10.846Z,98875.06
2023-02-11T05:39:39.103Z,98869.31
2023-02-11T05:42:07.293Z,98863.55
2023-02-11T05:44:35.559Z,98863.36
2023-02-11T05:47:03.835Z,98859.63
2023-02-11T05:49:32.227Z,98859.45
2023-02-11T05:52:00.287Z,98856.08
2023-02-11T05:54:28.371Z,98850.97
2023-02-11T05:56:56.659Z,98850.27
2023-02-11T05:59:24.837Z,98855.47
2023-02-11T06:01:52.845Z,98857.66
2023-02-11T06:04:20.989Z,98850.89
2023-02-11T06:06:49.056Z,98847.68
2023-02-11T06:09:17.048Z,98851.74
2023-02-11T06:11:45.345Z,98848.99
2023-02-11T06:14:14.414Z,98846.44
2023-02-11T06:16:42.692Z,98851.00
2023-02-11T06:19:11.691Z,98853.54
2023-02-11T06:21:44.102Z,98853.52
2023-02-11T06:24:13.272Z,98854.54
2023-02-11T06:26:41.352Z,98853.85
2023-02-11T06:29:09.525Z,98851.48
2023-02-11T06:31:39.399Z,98852.33
2023-02-11T06:34:10.486Z,98852.33
2023-02-11T06:36:41.187Z,98855.21
2023-02-11T06:39:13.604Z,98855.35
2023-02-11T06:41:41.699Z,98855.80
2023-02-11T06:44:10.062Z,98847.36
2023-02-11T06:46:38.157Z,98845.83
2023-02-11T06:49:06.513Z,98845.33
2023-02-11T06:51:34.705Z,98842.78
2023-02-11T06:54:04.922Z,98843.63
2023-02-11T06:56:33.716Z,98842.13
2023-02-11T06:59:02.093Z,98841.80
2023-02-11T07:01:30.083Z,98836.95
2023-02-11T07:03:58.550Z,98836.80
2023-02-11T07:06:28.224Z,98834.45
2023-02-11T07:08:56.955Z,98838.17
2023-02-11T07:11:28.346Z,98840.08
2023-02-11T07:14:01.913Z,98840.27
2023-02-11T07:16:30.479Z,98843.98
2023-02-11T07:18:58.887Z,98848.24
2023-02-11T07:21:27.482Z,98848.08
2023-02-11T07:23:55.655Z,98851.66
2023-02-11T07:26:25.880Z,98849.84
2023-02-11T07:28:55.593Z,98849.37
2023-02-11T07:31:28.068Z,98851.26
2023-02-11T07:34:00.026Z,98850.27
2023-02-11T07:36:32.112Z,98853.36
2023-02-11T07:39:00.472Z,98846.45
2023-02-11T07:41:28.862Z,98846.82
2023-02-11T07:43:57.041Z,98845.01
2023-02-11T07:46:28.018Z,98841.46
2023-02-11T07:48:56.590Z,98836.61
2023-02-11T07:51:30.439Z,98837.99
2023-02-11T07:54:00.156Z,98839.69
2023-02-11T07:56:29.070Z,98837.36
2023-02-11T07:59:00.996Z,98835.53
2023-02-11T08:01:30.358Z,98831.02
2023-02-11T08:04:00.212Z,98827.67
2023-02-11T08:06:31.881Z,98822.81
2023-02-11T08:09:05.680Z,98823.36
2023-02-11T08:11:33.917Z,98818.67
2023-02-11T08:14:02.193Z,98817.68
2023-02-11T08:16:33.386Z,98812.84
2023-02-11T08:19:04.699Z,98809.33
2023-02-11T08:21:32.833Z,98799.74
2023-02-11T08:24:03.498Z,98787.60
2023-02-11T08:26:34.754Z,98785.95
2023-02-11T08:29:10.405Z,98789.38
2023-02-11T08:31:41.358Z,98790.10
2023-02-11T08:34:11.621Z,98787.45
2023-02-11T08:36:42.035Z,98788.17
2023-02-11T08:39:20.043Z,98779.24
2023-02-11T08:41:51.686Z,98773.55
2023-02-11T08:44:21.172Z,98771.04
2023-02-11T08:46:50.678Z,98766.86
2023-02-11T08:49:19.254Z,98765.73
2023-02-11T08:51:47.720Z,98765.27
2023-02-11T08:54:16.564Z,98764.31
2023-02-11T08:56:44.724Z,98756.23
2023-02-11T08:59:15.134Z,98757.46
2023-02-11T09:01:44.654Z,98760.05
2023-02-11T09:04:13.612Z,98754.84
2023-02-11T09:06:42.056Z,98751.14
2023-02-11T09:09:13.764Z,98745.42
2023-02-11T09:11:44.144Z,98741.42
2023-02-11T09:14:21.982Z,98734.70
2023-02-11T09:16:51.650Z,98735.59
2023-02-11T09:19:21.035Z,98734.44
2023-02-11T09:21:49.215Z,98741.41
2023-02-11T09:24:17.396Z,98738.75
2023-02-11T09:26:45.494Z,98733.88
2023-02-11T09:29:13.757Z,98736.63
2023-02-11T09:31:41.968Z,98733.59
2023-02-11T09:34:12.062Z,98731.23
2023-02-11T09:36:41.621Z,98727.36
2023-02-11T09:39:14.646Z,98720.80
2023-02-11T09:42:08.928Z,98718.46
2023-02-11T09:44:38.105Z,98725.27
2023-02-11T09:47:18.069Z,98727.52
2023-02-11T09:49:50.348Z,98717.20
2023-02-11T09:52:45.246Z,98705.04
2023-02-11T09:55:45.543Z,98696.95
2023-02-11T09:58:22.966Z,98699.36
2023-02-11T10:01:22.471Z,98699.20
2023-02-11T10:04:19.355Z,98701.94
2023-02-11T10:06:54.927Z,98708.23
2023-02-11T10:09:42.637Z,98705.54
2023-02-11T10:12:32.620Z,98696.08
2023-02-11T10:15:17.983Z,98688.80
2023-02-11T10:17:48.808Z,98687.14
2023-02-11T10:20:35.633Z,98681.39
2023-02-11T10:23:15.892Z,98678.02
2023-02-11T10:25:47.133Z,98679.05
2023-02-11T10:28:21.754Z,98667.71
2023-02-11T10:31:10.256Z,98671.62
2023-02-11T10:33:50.955Z,98673.51
2023-02-11T10:36:21.224Z,98676.91
2023-02-11T10:38:49.562Z,98679.81
2023-02-11T10:41:22.980Z,98676.27
2023-02-11T10:43:52.064Z,98671.52
2023-02-11T10:46:27.028Z,98666.27
2023-02-11T10:48:55.177Z,98657.81
2023-02-11T10:51:28.587Z,98649.16
2023-02-11T10:54:06.369Z,98643.23
2023-02-11T10:56:37.622Z,98638.50
2023-02-11T10:59:15.517Z,98624.08
2023-02-11T11:01:54.393Z,98624.77
2023-02-11T11:04:33.847Z,98626.98
2023-02-11T11:07:23.958Z,98620.35
2023-02-11T11:10:27.459Z,98607.81
2023-02-11T11:12:55.634Z,98603.05
2023-02-11T11:15:27.470Z,98597.96
2023-02-11T11:18:21.393Z,98592.88
2023-02-11T11:21:24.622Z,98586.25
2023-02-11T11:23:54.950Z,98581.16
2023-02-11T11:26:26.033Z,98574.53
2023-02-11T11:29:08.189Z,98572.83
2023-02-11T11:32:04.742Z,98558.23
2023-02-11T11:34:37.283Z,98550.73
2023-02-11T11:37:19.514Z,98547.67
2023-02-11T11:39:58.516Z,98539.87
2023-02-11T11:42:26.906Z,98539.51
2023-02-11T11:45:20.148Z,98533.40
2023-02-11T11:47:56.195Z,98532.87
2023-02-11T11:50:45.156Z,98526.93
2023-02-11T11:53:37.483Z,98523.67
2023-02-11T11:56:09.983Z,98530.65
2023-02-11T11:58:38.418Z,98528.59
2023-02-11T12:01:21.254Z,98530.80
2023-02-11T12:04:26.893Z,98529.09
2023-02-11T12:07:25.950Z,98528.06
2023-02-11T12:09:54.455Z,98528.39
2023-02-11T12:12:34.504Z,98523.80
2023-02-11T12:15:05.549Z,98519.05
2023-02-11T12:18:11.081Z,98509.01
2023-02-11T12:20:50.610Z,98505.25
2023-02-11T12:23:38.764Z,98499.46
2023-02-11T12:26:18.530Z,98496.06
2023-02-11T12:29:24.901Z,98495.37
2023-02-11T12:32:04.658Z,98489.40
2023-02-11T12:35:07.152Z,98484.98
2023-02-11T12:37:49.146Z,98485.98
2023-02-11T12:40:22.036Z,98490.38
2023-02-11T12:43:22.000Z,98488.33
2023-02-11T12:46:28.701Z,98486.10
2023-02-11T12:49:12.126Z,98486.09
2023-02-11T12:52:03.737Z,98483.34
2023-02-11T12:54:58.726Z,98476.88
2023-02-11T12:57:31.196Z,98473.95
2023-02-11T13:00:40.722Z,98470.55
2023-02-11T13:03:19.835Z,98467.63
2023-02-11T13:05:58.795Z,98461.67
2023-02-11T13:08:42.613Z,98460.96
2023-02-11T13:11:16.372Z,98457.89
2023-02-11T13:13:50.216Z,98452.77
2023-02-11T13:16:35.853Z,98442.39
2023-02-11T13:19:14.061Z,98435.91
2023-02-11T13:22:01.120Z,98428.58
2023-02-11T13:24:51.399Z,98427.86
2023-02-11T13:27:41.062Z,98424.95
2023-02-11T13:30:29.573Z,98420.49
2023-02-11T13:32:57.688Z,98414.37
2023-02-11T13:35:40.362Z,98413.65
2023-02-11T13:38:18.905Z,98409.35
2023-02-11T13:41:04.691Z,98411.32
2023-02-11T13:43:35.734Z,98413.45
2023-02-11T13:46:06.802Z,98420.83
2023-02-11T13:48:50.126Z,98415.48
2023-02-11T13:51:34.645Z,98416.21
2023-02-11T13:54:04.494Z,98420.35
2023-02-11T13:56:37.042Z,98415.15
2023-02-11T13:59:27.548Z,98413.67
2023-02-11T14:02:36.283Z,98418.34
2023-02-11T14:05:22.877Z,98416.72
2023-02-11T14:08:42.077Z,98407.98
2023-02-11T14:11:29.999Z,98401.16
2023-02-11T14:14:25.618Z,98388.54
2023-02-11T14:17:00.349Z,98384.95
2023-02-11T14:19:34.821Z,98383.42
2023-02-11T14:22:04.679Z,98376.96
2023-02-11T14:24:32.752Z,98377.30
2023-02-11T14:27:56.916Z,98371.52
2023-02-11T14:30:46.690Z,98366.58
2023-02-11T14:33:21.102Z,98370.84
2023-02-11T14:36:05.963Z,98368.32
2023-02-11T14:38:49.455Z,98362.38
2023-02-11T14:41:26.877Z,98357.80
2023-02-11T14:43:59.831Z,98355.25
2023-02-11T14:46:30.444Z,98357.84
2023-02-11T14:49:01.846Z,98364.14
2023-02-11T14:51:40.350Z,98370.11
2023-02-11T14:54:24.080Z,98376.43
2023-02-11T14:57:17.425Z,98374.94
2023-02-11T15:00:04.434Z,98374.61
2023-02-11T15:02:35.835Z,98371.41
2023-02-11T15:05:23.839Z,98368.88
2023-02-11T15:07:55.088Z,98375.71
2023-02-11T15:10:31.863Z,98379.13
2023-02-11T15:13:01.492Z,98381.02
2023-02-11T15:15:31.009Z,98377.98
2023-02-11T15:18:02.771Z,98380.20
2023-02-11T15:20:33.780Z,98376.63
2023-02-11T15:23:05.056Z,98378.55
2023-02-11T15:25:34.347Z,98381.29
2023-02-11T15:28:21.235Z,98380.27
2023-02-11T15:31:01.046Z,98378.39
2023-02-11T15:33:32.958Z,98378.05
2023-02-11T15:36:02.747Z,98378.58
2023-02-11T15:38:31.362Z,98378.61
2023-02-11T15:41:02.474Z,98369.92
2023-02-11T15:43:54.210Z,98365.68
2023-02-11T15:46:23.672Z,98359.25
2023-02-11T15:48:55.686Z,98356.20
2023-02-11T15:51:36.550Z,98354.67
2023-02-11T15:54:24.091Z,98346.20
2023-02-11T15:56:55.458Z,98342.48
2023-02-11T15:59:32.302Z,98339.08
2023-02-11T16:02:29.241Z,98344.55
2023-02-11T16:05:00.181Z,98341.16
2023-02-11T16:07:50.054Z,98330.98
2023-02-11T16:10:23.155Z,98322.84
2023-02-11T16:13:06.304Z,98321.66
2023-02-11T16:15:34.458Z,98314.38
2023-02-11T16:18:12.709Z,98317.13
2023-02-11T16:20:41.342Z,98316.46
2023-02-11T16:23:23.535Z,98309.68
2023-02-11T16:26:00.004Z,98313.95
2023-02-11T16:28:29.427Z,98316.18
2023-02-11T16:30:59.784Z,98316.37
2023-02-11T16:33:29.965Z,98318.61
2023-02-11T16:36:02.135Z,98323.38
2023-02-11T16:38:32.279Z,98323.59
2023-02-11T16:41:00.335Z,98334.66
2023-02-11T16:43:28.339Z,98332.45
2023-02-11T16:45:58.744Z,98336.20
2023-02-11T16:48:26.855Z,98332.13
2023-02-11T16:50:55.451Z,98329.10
2023-02-11T16:53:25.436Z,98325.70
2023-02-11T16:55:54.237Z,98322.14
2023-02-11T16:58:22.398Z,98321.80
2023-02-11T17:00:51.517Z,98325.55
2023-02-11T17:03:23.038Z,98325.77
2023-02-11T17:05:55.686Z,98329.85
2023-02-11T17:08:24.212Z,98337.86
2023-02-11T17:10:52.893Z,98342.15
2023-02-11T17:13:21.289Z,98350.14
2023-02-11T17:15:49.713Z,98341.13
2023-02-11T17:18:18.058Z,98332.15
2023-02-11T17:20:46.130Z,98333.86
2023-02-11T17:23:14.413Z,98330.30
2023-02-11T17:25:42.691Z,98328.77
2023-02-11T17:28:12.279Z,98332.02
2023-02-11T17:30:43.542Z,98321.33
2023-02-11T17:33:11.620Z,98305.35
2023-02-11T17:35:41.067Z,98296.17
2023-02-11T17:38:09.210Z,98281.91
2023-02-11T17:40:37.388Z,98275.47
2023-02-11T17:43:05.356Z,98284.66
2023-02-11T17:45:33.558Z,98281.45
2023-02-11T17:48:02.336Z,98285.38
2023-02-11T17:50:30.304Z,98296.61
2023-02-11T17:52:58.489Z,98302.91
2023-02-11T17:55:26.572Z,98308.90
2023-02-11T17:57:55.670Z,98318.77
2023-02-11T18:00:24.145Z,98320.64
2023-02-11T18:02:52.083Z,98313.16
2023-02-11T18:05:20.845Z,98312.32
2023-02-11T18:07:49.098Z,98313.68
2023-02-11T18:10:17.535Z,98319.81
2023-02-11T18:12:45.749Z,98317.45
2023-02-11T18:15:16.891Z,98322.72
2023-02-11T18:17:45.090Z,98326.30
2023-02-11T18:20:13.360Z,98327.66
2023-02-11T18:22:42.174Z,98325.63
2023-02-11T18:25:14.724Z,98310.83
2023-02-11T18:27:43.389Z,98303.86
2023-02-11T18:30:16.549Z,98306.24
2023-02-11T18:32:44.708Z,98312.57
2023-02-11T18:35:15.121Z,98320.40
2023-02-11T18:37:43.301Z,98312.74
2023-02-11T18:40:13.852Z,98311.24
2023-02-11T18:42:42.942Z,98314.31
2023-02-11T18:45:15.056Z,98312.45
2023-02-11T18:47:43.181Z,98317.04
2023-02-11T18:50:13.823Z,98317.04
2023-02-11T18:52:42.398Z,98316.88
2023-02-11T18:55:10.908Z,98314.49
2023-02-11T18:57:38.926Z,98311.61
2023-02-11T19:00:10.119Z,98311.09
2023-02-11T19:02:38.411Z,98300.21
2023-02-11T19:05:07.152Z,98301.41
2023-02-11T19:07:35.351Z,98310.07
2023-02-11T19:10:05.097Z,98309.57
2023-02-11T19:12:33.357Z,98317.39
2023-02-11T19:15:01.336Z,98319.27
2023-02-11T19:17:29.312Z,98312.99
2023-02-11T19:19:57.388Z,98311.82
2023-02-11T19:22:25.444Z,98306.22
2023-02-11T19:24:53.429Z,98309.27
2023-02-11T19:27:21.524Z,98303.19
2023-02-11T19:29:49.475Z,98302.50
2023-02-11T19:32:17.778Z,98295.54
2023-02-11T19:34:45.712Z,98290.77
2023-02-11T19:37:13.916Z,98297.55
2023-02-11T19:39:43.020Z,98303.52
2023-02-11T19:42:12.317Z,98311.84
2023-02-11T19:44:40.603Z,98303.66
2023-02-11T19:47:10.450Z,98295.67
2023-02-11T19:49:38.498Z,98295.17
2023-02-11T19:52:06.571Z,98294.14
2023-02-11T19:54:34.711Z,98293.29
2023-02-11T19:57:03.040Z,98285.30
2023-02-11T19:59:31.102Z,98275.95
2023-02-11T20:02:01.866Z,98276.97
2023-02-11T20:04:32.286Z,98284.95
2023-02-11T20:07:00.456Z,98282.71
2023-02-11T20:09:29.141Z,98284.58
2023-02-11T20:11:57.521Z,98284.44
2023-02-11T20:14:27.903Z,98287.14
2023-02-11T20:16:56.340Z,98280.33
2023-02-11T20:19:24.509Z,98273.36
2023-02-11T20:21:56.083Z,98266.23
2023-02-11T20:24:25.626Z,98265.55
2023-02-11T20:26:56.733Z,98262.14
2023-02-11T20:29:25.894Z,98259.77
2023-02-11T20:31:54.514Z,98257.39
2023-02-11T20:34:25.158Z,98252.62
2023-02-11T20:36:54.290Z,98243.47
2023-02-11T20:39:24.409Z,98246.17
2023-02-11T20:41:53.931Z,98240.38
2023-02-11T20:44:23.199Z,98233.73
2023-02-11T20:46:54.491Z,98222.02
2023-02-11T20:49:24.655Z,98221.33
2023-02-11T20:51:53.944Z,98218.62
2023-02-11T20:54:24.393Z,98215.40
2023-02-11T20:56:54.033Z,98214.59
2023-02-11T20:59:24.736Z,98220.02
2023-02-11T21:01:55.687Z,98217.65
2023-02-11T21:04:27.784Z,98215.44
2023-02-11T21:06:59.254Z,98212.72
2023-02-11T21:09:30.963Z,98209.49
2023-02-11T21:11:59.540Z,98214.09
2023-02-11T21:14:28.648Z,98210.00
2023-02-11T21:16:57.850Z,98209.66
2023-02-11T21:19:25.938Z,98207.11
2023-02-11T21:21:55.263Z,98202.86
2023-02-11T21:24:23.926Z,98201.83
2023-02-11T21:26:51.946Z,98201.48
2023-02-11T21:29:20.293Z,98207.59
2023-02-11T21:31:48.989Z,98202.48
2023-02-11T21:34:17.363Z,98203.48
2023-02-11T21:36:45.541Z,98204.85
2023-02-11T21:39:13.943Z,98198.72
2023-02-11T21:41:42.212Z,98199.06
2023-02-11T21:44:10.398Z,98197.19
2023-02-11T21:46:38.505Z,98196.65
2023-02-11T21:49:06.559Z,98200.23
2023-02-11T21:51:34.654Z,98206.84
2023-02-11T21:54:04.015Z,98206.84
2023-02-11T21:56:34.324Z,98206.48
2023-02-11T21:59:02.782Z,98204.27
2023-02-11T22:01:35.435Z,98202.55
2023-02-11T22:04:03.808Z,98201.85
2023-02-11T22:06:34.219Z,98210.52
2023-02-11T22:09:06.707Z,98207.45
2023-02-11T22:11:35.811Z,98210.86
2023-02-11T22:14:04.116Z,98211.36
2023-02-11T22:16:32.505Z,98206.27
2023-02-11T22:19:02.623Z,98204.73
2023-02-11T22:21:30.781Z,98207.45
2023-02-11T22:23:59.048Z,98209.49
2023-02-11T22:26:28.153Z,98207.11
2023-02-11T22:28:56.947Z,98205.58
2023-02-11T22:31:28.926Z,98205.57
2023-02-11T22:33:57.958Z,98203.86
2023-02-11T22:36:29.389Z,98206.22
2023-02-11T22:39:01.832Z,98207.40
2023-02-11T22:41:30.019Z,98205.20
2023-02-11T22:43:58.388Z,98204.52
2023-02-11T22:46:26.596Z,98206.55
2023-02-11T22:48:55.159Z,98206.04
2023-02-11T22:51:26.298Z,98207.91
2023-02-11T22:53:59.507Z,98212.33
2023-02-11T22:56:28.699Z,98208.59
2023-02-11T22:58:59.119Z,98207.58
2023-02-11T23:01:28.365Z,98202.47
2023-02-11T23:03:58.645Z,98202.81
2023-02-11T23:06:26.827Z,98206.20
2023-02-11T23:08:55.720Z,98209.27
2023-02-11T23:11:27.431Z,98210.45
2023-02-11T23:13:56.280Z,98210.80
2023-02-11T23:16:28.033Z,98208.75
2023-02-11T23:18:58.601Z,98206.38
2023-02-11T23:21:29.871Z,98203.64
2023-02-11T23:24:00.516Z,98204.67
2023-02-11T23:26:29.651Z,98201.77
2023-02-11T23:28:59.371Z,98204.14
2023-02-11T23:31:31.014Z,98201.23
2023-02-11T23:33:59.301Z,98197.65
2023-02-11T23:36:27.851Z,98199.52
2023-02-11T23:38:55.970Z,98202.56
2023-02-11T23:41:24.979Z,98200.86
2023-02-11T23:43:55.162Z,98197.29
2023-02-11T23:46:24.859Z,98195.08
2023-02-11T23:48:53.400Z,98192.02
2023-02-11T23:51:22.748Z,98186.07
2023-02-11T23:53:52.735Z,98185.05
2023-02-11T23:56:24.000Z,98189.48
2023-02-11T23:58:54.379Z,98193.05
